Time;durP1;ratioP1;P1;durP2;ratioP2;P2;SDS_P1;SDS_P2;PMS_P1;PMS_P2;Temp;Humidity;BMP_temperature;BMP_pressure;BME280_temperature;BME280_humidity;BME280_pressure;Samples;Min_cycle;Max_cycle;Signal;HPM_P1;HPM_P2
2023/04/02 00:02:25;;;;;;;4.13;3.70;;;16.60;57.90;;;;;;5119070;27;20455;-84
2023/04/02 00:05:49;;;;;;;6.77;4.70;;;16.50;57.60;;;;;;5111833;27;20440;-84
2023/04/02 00:08:20;;;;;;;6.47;4.23;;;16.50;57.60;;;;;;5113617;28;20460;-83
2023/04/02 00:10:50;;;;;;;5.03;4.30;;;16.40;57.70;;;;;;5118318;28;20486;-84
2023/04/02 00:13:25;;;;;;;4.37;4.00;;;16.40;57.60;;;;;;5115018;27;20453;-84
2023/04/02 00:15:56;;;;;;;4.93;4.43;;;16.40;57.60;;;;;;5129358;28;20478;-82
2023/04/02 00:18:24;;;;;;;5.97;4.70;;;16.40;57.60;;;;;;5104820;28;20472;-83
2023/04/02 00:20:53;;;;;;;8.60;5.70;;;16.40;57.60;;;;;;5113856;27;20452;-83
2023/04/02 00:23:22;;;;;;;7.50;6.27;;;16.30;57.20;;;;;;5106386;27;20457;-83
2023/04/02 00:25:51;;;;;;;10.60;5.80;;;16.30;57.40;;;;;;5110992;27;20452;-83
2023/04/02 00:28:20;;;;;;;9.53;7.07;;;16.20;57.40;;;;;;5107065;27;20535;-83
2023/04/02 00:30:49;;;;;;;10.50;7.30;;;16.20;57.40;;;;;;5111854;27;20451;-84
2023/04/02 00:33:19;;;;;;;12.93;7.03;;;16.20;57.40;;;;;;5113583;27;20479;-83
2023/04/02 00:35:47;;;;;;;10.27;7.40;;;16.20;57.30;;;;;;5108439;27;20443;-84
2023/04/02 00:38:19;;;;;;;12.70;8.33;;;16.20;57.40;;;;;;5113245;27;20472;-83
2023/04/02 00:40:48;;;;;;;12.50;7.33;;;16.20;57.40;;;;;;5113899;28;20515;-84
2023/04/02 00:43:17;;;;;;;10.60;7.63;;;16.20;57.20;;;;;;5113182;28;20440;-83
2023/04/02 00:45:49;;;;;;;12.27;7.60;;;16.10;57.10;;;;;;5108435;28;20439;-84
2023/04/02 00:48:35;;;;;;;10.30;7.90;;;16.10;57.30;;;;;;5119270;28;20452;-85
2023/04/02 00:51:10;;;;;;;7.97;6.60;;;16.10;57.10;;;;;;5118926;27;20448;-85
2023/04/02 00:53:38;;;;;;;10.90;7.70;;;16.00;57.10;;;;;;5119385;27;20447;-83
2023/04/02 00:56:08;;;;;;;10.43;7.77;;;16.00;57.00;;;;;;5120845;27;20443;-84
2023/04/02 00:58:37;;;;;;;10.03;7.30;;;16.00;57.00;;;;;;5119795;28;20482;-84
2023/04/02 01:01:16;;;;;;;10.10;7.40;;;16.00;57.00;;;;;;5117582;28;20477;-84
2023/04/02 01:03:48;;;;;;;11.53;7.23;;;16.00;57.10;;;;;;5110030;27;20436;-83
2023/04/02 01:06:17;;;;;;;14.90;7.87;;;16.00;57.00;;;;;;5111501;28;20488;-84
2023/04/02 01:08:55;;;;;;;10.83;7.93;;;15.90;56.90;;;;;;5113871;28;20453;-84
2023/04/02 01:11:31;;;;;;;12.80;6.87;;;15.90;56.80;;;;;;5118148;28;20442;-85
2023/04/02 01:14:03;;;;;;;9.90;7.50;;;15.90;56.90;;;;;;5120297;27;20450;-83
2023/04/02 01:16:36;;;;;;;9.63;7.20;;;15.90;56.90;;;;;;5110799;28;20439;-84
2023/04/02 01:19:17;;;;;;;17.67;8.00;;;15.90;56.80;;;;;;5113292;28;20459;-84
2023/04/02 01:21:52;;;;;;;11.30;7.87;;;15.80;56.70;;;;;;5112803;28;20455;-84
2023/04/02 01:24:21;;;;;;;9.17;6.60;;;15.80;56.70;;;;;;5107792;28;20504;-82
2023/04/02 01:26:56;;;;;;;8.70;6.80;;;15.80;56.70;;;;;;5116106;28;20446;-83
2023/04/02 01:29:27;;;;;;;8.73;6.73;;;15.80;56.70;;;;;;5115963;28;20459;-83
2023/04/02 01:31:57;;;;;;;11.97;6.03;;;15.80;56.60;;;;;;5107741;28;20445;-83
2023/04/02 01:34:26;;;;;;;7.87;6.13;;;15.70;56.60;;;;;;5108427;28;20454;-84
2023/04/02 01:37:00;;;;;;;9.23;6.53;;;15.70;56.40;;;;;;5107923;27;20446;-83
2023/04/02 01:39:36;;;;;;;9.07;6.33;;;15.70;56.50;;;;;;5116206;28;20514;-82
2023/04/02 01:42:06;;;;;;;7.87;6.00;;;15.70;56.50;;;;;;5120010;28;20471;-84
2023/04/02 01:44:37;;;;;;;8.43;6.67;;;15.70;56.50;;;;;;5111468;28;20441;-83
2023/04/02 01:47:07;;;;;;;8.77;6.57;;;15.70;56.60;;;;;;5109544;27;20463;-83
2023/04/02 01:49:35;;;;;;;9.00;6.03;;;15.60;56.40;;;;;;5111251;28;20452;-83
2023/04/02 01:52:03;;;;;;;10.33;6.70;;;15.60;56.40;;;;;;5100011;28;20449;-82
2023/04/02 01:54:31;;;;;;;9.00;5.53;;;15.60;56.40;;;;;;5112027;28;20444;-83
2023/04/02 01:56:59;;;;;;;6.15;5.55;;;15.60;56.40;;;;;;5115726;27;20436;-83
2023/04/02 01:59:27;;;;;;;8.03;5.57;;;15.60;56.40;;;;;;5117094;27;20467;-83
2023/04/02 02:02:00;;;;;;;8.30;5.97;;;15.60;56.40;;;;;;5115947;28;20447;-83
2023/04/02 02:04:28;;;;;;;7.70;5.70;;;15.50;56.30;;;;;;5109421;28;20543;-83
2023/04/02 02:06:57;;;;;;;7.27;5.20;;;15.50;56.30;;;;;;5099869;28;20454;-84
2023/04/02 02:09:27;;;;;;;6.00;5.07;;;15.50;56.30;;;;;;5108094;28;20457;-84
2023/04/02 02:11:55;;;;;;;5.73;5.10;;;15.50;56.20;;;;;;5112272;28;20446;-83
2023/04/02 02:14:23;;;;;;;6.80;5.40;;;15.50;56.20;;;;;;5111201;27;20444;-83
2023/04/02 02:16:52;;;;;;;8.37;5.60;;;15.50;56.10;;;;;;5111929;28;20448;-83
2023/04/02 02:19:25;;;;;;;5.93;5.00;;;15.40;56.10;;;;;;5112518;28;20476;-84
2023/04/02 02:21:54;;;;;;;7.20;5.30;;;15.40;56.20;;;;;;5099785;28;20997;-84
2023/04/02 02:24:23;;;;;;;10.23;5.40;;;15.40;56.10;;;;;;5120631;27;20999;-83
2023/04/02 02:26:55;;;;;;;7.00;4.97;;;15.40;56.10;;;;;;5113256;28;20436;-84
2023/04/02 02:29:23;;;;;;;4.50;4.10;;;15.30;56.10;;;;;;5114303;27;20462;-85
2023/04/02 02:31:52;;;;;;;6.93;5.03;;;15.30;56.00;;;;;;5107987;28;20444;-84
2023/04/02 02:34:23;;;;;;;6.67;4.30;;;15.30;55.90;;;;;;5119785;28;20457;-84
2023/04/02 02:36:52;;;;;;;5.10;4.60;;;15.30;56.10;;;;;;5118550;27;20447;-84
2023/04/02 02:39:22;;;;;;;6.47;5.13;;;15.20;56.00;;;;;;5112977;28;20558;-83
2023/04/02 02:41:51;;;;;;;4.60;3.97;;;15.20;56.00;;;;;;5114303;28;20479;-83
2023/04/02 02:44:20;;;;;;;5.03;4.47;;;15.30;56.00;;;;;;5118363;28;20447;-83
2023/04/02 02:46:50;;;;;;;6.40;4.47;;;15.20;55.80;;;;;;5119375;27;20530;-83
2023/04/02 02:49:19;;;;;;;4.50;4.10;;;15.20;55.70;;;;;;5114558;27;20463;-83
2023/04/02 02:51:52;;;;;;;7.17;4.40;;;15.20;55.80;;;;;;5120737;27;20454;-83
2023/04/02 02:54:20;;;;;;;6.63;4.13;;;15.20;55.80;;;;;;5113557;28;20438;-83
2023/04/02 02:56:51;;;;;;;6.73;4.27;;;15.10;55.70;;;;;;5121959;28;20424;-83
2023/04/02 02:59:19;;;;;;;4.17;3.77;;;15.10;55.80;;;;;;5107427;28;20559;-83
2023/04/02 03:01:47;;;;;;;4.40;3.07;;;15.10;55.80;;;;;;5120028;27;20448;-84
2023/04/02 03:04:19;;;;;;;4.20;3.63;;;15.10;55.70;;;;;;5114669;27;20451;-82
2023/04/02 03:06:51;;;;;;;4.10;3.70;;;15.00;55.60;;;;;;5121033;27;20459;-83
2023/04/02 03:09:22;;;;;;;3.87;3.47;;;15.00;55.70;;;;;;5119819;28;20464;-82
2023/04/02 03:11:52;;;;;;;4.07;3.30;;;15.00;55.60;;;;;;5115894;27;20456;-83
2023/04/02 03:14:22;;;;;;;4.97;3.40;;;15.00;55.40;;;;;;5119406;28;20467;-83
2023/04/02 03:16:51;;;;;;;5.17;3.83;;;15.00;55.60;;;;;;5120122;28;20443;-81
2023/04/02 03:19:25;;;;;;;4.50;3.37;;;15.00;55.50;;;;;;5118791;28;20503;-82
2023/04/02 03:21:56;;;;;;;4.00;3.67;;;15.00;55.70;;;;;;5125880;27;20424;-82
2023/04/02 03:24:32;;;;;;;3.90;3.43;;;14.90;55.30;;;;;;5121180;28;20468;-82
2023/04/02 03:27:02;;;;;;;3.73;3.37;;;14.90;55.40;;;;;;5108414;28;20528;-83
2023/04/02 03:29:31;;;;;;;4.07;3.23;;;14.90;55.40;;;;;;5114758;27;20436;-83
2023/04/02 03:32:00;;;;;;;5.93;3.50;;;14.90;55.30;;;;;;5109233;27;20445;-83
2023/04/02 03:34:31;;;;;;;4.00;2.83;;;14.90;55.30;;;;;;5113904;28;20424;-83
2023/04/02 03:37:05;;;;;;;3.43;3.10;;;14.90;55.40;;;;;;5115016;27;20463;-83
2023/04/02 03:39:35;;;;;;;4.13;3.30;;;14.80;55.30;;;;;;5114631;27;20533;-83
2023/04/02 03:42:05;;;;;;;3.50;3.20;;;14.80;55.30;;;;;;5114821;27;20443;-83
2023/04/02 03:44:35;;;;;;;7.33;3.10;;;14.80;55.20;;;;;;5116405;28;20447;-84
2023/04/02 03:47:05;;;;;;;3.27;3.00;;;14.80;55.20;;;;;;5117036;28;20466;-83
2023/04/02 03:49:35;;;;;;;3.23;2.93;;;14.80;55.30;;;;;;5109754;28;20462;-84
2023/04/02 03:52:05;;;;;;;3.30;2.97;;;14.80;55.30;;;;;;5112812;28;20442;-83
2023/04/02 03:54:33;;;;;;;4.07;3.10;;;14.80;55.30;;;;;;5118048;28;20436;-84
2023/04/02 03:57:01;;;;;;;3.30;3.00;;;14.70;55.20;;;;;;5121544;28;20439;-83
2023/04/02 03:59:35;;;;;;;3.33;3.07;;;14.70;55.20;;;;;;5119406;27;20460;-83
2023/04/02 04:02:10;;;;;;;3.20;3.00;;;14.70;55.00;;;;;;5121112;28;20432;-83
2023/04/02 04:04:39;;;;;;;2.80;2.60;;;14.70;55.20;;;;;;5112766;28;20439;-83
2023/04/02 04:07:11;;;;;;;2.90;2.70;;;14.70;55.20;;;;;;5113142;28;20440;-83
2023/04/02 04:09:39;;;;;;;3.33;2.40;;;14.60;55.20;;;;;;5120821;28;20434;-83
2023/04/02 04:12:12;;;;;;;2.20;2.10;;;14.60;55.20;;;;;;5120918;28;20442;-82
2023/04/02 04:14:41;;;;;;;3.73;2.93;;;14.60;55.30;;;;;;5113886;28;20458;-84
2023/04/02 04:17:14;;;;;;;2.90;2.70;;;14.60;55.20;;;;;;5118371;28;20496;-82
2023/04/02 04:19:44;;;;;;;3.27;3.03;;;14.60;55.30;;;;;;5107047;28;20475;-83
2023/04/02 04:22:16;;;;;;;2.63;2.40;;;14.60;55.20;;;;;;5118218;28;20524;-83
2023/04/02 04:24:44;;;;;;;2.97;2.70;;;14.60;55.10;;;;;;5112724;28;20467;-82
2023/04/02 04:27:16;;;;;;;2.50;2.30;;;14.60;55.10;;;;;;5113166;28;20519;-82
2023/04/02 04:29:46;;;;;;;2.80;2.40;;;14.50;55.10;;;;;;5106778;28;20427;-83
2023/04/02 04:32:18;;;;;;;2.97;2.20;;;14.50;55.00;;;;;;5112417;28;20432;-84
2023/04/02 04:34:52;;;;;;;4.33;3.00;;;14.50;55.20;;;;;;5112823;28;20459;-84
2023/04/02 04:37:25;;;;;;;3.07;2.53;;;14.50;55.10;;;;;;5114056;27;20448;-83
2023/04/02 04:39:55;;;;;;;2.53;2.33;;;14.50;55.10;;;;;;5107896;28;20555;-84
2023/04/02 04:42:25;;;;;;;2.50;2.30;;;14.40;55.10;;;;;;5114087;28;20523;-84
2023/04/02 04:44:55;;;;;;;2.73;2.43;;;14.40;55.10;;;;;;5116562;28;20450;-85
2023/04/02 04:47:26;;;;;;;2.30;2.10;;;14.40;55.10;;;;;;5114811;28;20432;-83
2023/04/02 04:49:55;;;;;;;2.57;2.37;;;14.40;55.10;;;;;;5114242;27;20855;-83
2023/04/02 04:52:26;;;;;;;4.40;1.93;;;14.40;55.10;;;;;;5113645;27;20458;-83
2023/04/02 04:54:54;;;;;;;2.47;2.23;;;14.40;55.00;;;;;;5114346;27;20450;-83
2023/04/02 04:57:27;;;;;;;9.23;2.60;;;14.40;55.10;;;;;;5113726;28;20548;-83
2023/04/02 04:59:57;;;;;;;2.00;1.90;;;14.40;55.00;;;;;;5113989;27;20452;-83
2023/04/02 05:02:27;;;;;;;2.57;2.37;;;14.40;55.00;;;;;;5115117;28;20507;-83
2023/04/02 05:04:55;;;;;;;2.07;1.97;;;14.40;55.10;;;;;;5116148;28;20530;-84
2023/04/02 05:07:25;;;;;;;2.20;2.10;;;14.30;55.00;;;;;;5114209;28;20474;-83
2023/04/02 05:09:55;;;;;;;2.97;2.37;;;14.30;54.80;;;;;;5115641;28;20428;-84
2023/04/02 05:12:30;;;;;;;2.80;2.17;;;14.30;55.00;;;;;;5107823;28;20441;-83
2023/04/02 05:14:59;;;;;;;2.50;2.30;;;14.30;55.10;;;;;;5115374;28;20517;-83
2023/04/02 05:17:29;;;;;;;2.53;2.33;;;14.30;55.10;;;;;;5115089;27;20466;-83
2023/04/02 05:19:59;;;;;;;2.30;2.10;;;14.30;55.10;;;;;;5104649;27;20832;-83
2023/04/02 05:22:33;;;;;;;2.20;2.00;;;14.30;55.00;;;;;;5115255;27;20448;-83
2023/04/02 05:25:09;;;;;;;1.90;1.80;;;14.30;54.90;;;;;;5110230;28;20472;-83
2023/04/02 05:27:39;;;;;;;2.20;2.00;;;14.30;54.90;;;;;;5115158;27;20460;-83
2023/04/02 05:30:12;;;;;;;2.00;1.90;;;14.30;55.20;;;;;;5114690;27;20470;-83
2023/04/02 05:32:41;;;;;;;2.10;1.93;;;14.30;54.90;;;;;;5114726;28;20456;-83
2023/04/02 05:35:14;;;;;;;2.23;2.03;;;14.30;55.00;;;;;;5114099;28;20447;-83
2023/04/02 05:37:44;;;;;;;2.70;2.30;;;14.30;55.00;;;;;;5113921;27;20460;-83
2023/04/02 05:40:14;;;;;;;4.43;2.10;;;14.30;55.10;;;;;;5113667;27;20460;-83
2023/04/02 05:42:43;;;;;;;2.33;2.10;;;14.30;55.10;;;;;;5110853;28;20819;-83
2023/04/02 05:45:19;;;;;;;2.10;2.00;;;14.30;55.10;;;;;;5113801;28;20440;-84
2023/04/02 05:47:48;;;;;;;1.57;1.50;;;14.30;55.10;;;;;;5105335;28;20508;-84
2023/04/02 05:50:20;;;;;;;1.90;1.80;;;14.20;55.00;;;;;;5113534;27;20444;-83
2023/04/02 05:52:51;;;;;;;2.00;1.53;;;14.30;55.00;;;;;;5113230;27;20471;-83
2023/04/02 05:55:30;;;;;;;1.70;1.60;;;14.30;55.00;;;;;;5117553;27;20544;-84
2023/04/02 05:58:02;;;;;;;2.07;1.83;;;14.30;55.00;;;;;;5117862;28;20482;-82
2023/04/02 06:01:06;;;;;;;3.20;1.80;;;14.30;55.10;;;;;;5109725;28;20477;-82
2023/04/02 06:03:38;;;;;;;1.93;1.83;;;14.30;54.90;;;;;;5113087;28;20440;-83
2023/04/02 06:06:11;;;;;;;2.40;1.70;;;14.30;55.00;;;;;;5112232;27;20448;-82
2023/04/02 06:08:44;;;;;;;1.90;1.80;;;14.30;55.00;;;;;;5118088;28;20485;-83
2023/04/02 06:11:13;;;;;;;2.53;1.83;;;14.40;55.10;;;;;;5118157;27;20443;-83
2023/04/02 06:13:41;;;;;;;2.10;2.00;;;14.40;55.10;;;;;;5117741;28;20451;-83
2023/04/02 06:16:09;;;;;;;2.30;2.10;;;14.50;55.10;;;;;;5117878;28;20446;-84
2023/04/02 06:18:37;;;;;;;1.70;1.60;;;14.50;55.20;;;;;;5117240;27;20475;-81
2023/04/02 06:21:06;;;;;;;1.60;1.50;;;14.50;55.20;;;;;;5117329;27;20467;-83
2023/04/02 06:23:36;;;;;;;1.80;1.70;;;14.50;55.20;;;;;;5119879;28;20440;-83
2023/04/02 06:26:09;;;;;;;1.90;1.77;;;14.50;55.30;;;;;;5113987;28;20467;-83
2023/04/02 06:28:40;;;;;;;2.77;1.80;;;14.60;55.50;;;;;;5124662;28;20446;-86
2023/04/02 06:31:10;;;;;;;1.83;1.40;;;14.60;55.50;;;;;;5126384;27;20443;-84
2023/04/02 06:33:39;;;;;;;2.00;1.90;;;14.70;55.60;;;;;;5116375;27;20444;-84
2023/04/02 06:36:07;;;;;;;1.57;1.47;;;14.70;55.70;;;;;;5115841;28;20450;-83
2023/04/02 06:38:36;;;;;;;1.70;1.60;;;14.80;55.90;;;;;;5116309;28;20464;-83
2023/04/02 06:41:10;;;;;;;3.00;1.50;;;14.80;55.90;;;;;;5107732;28;20470;-83
2023/04/02 06:43:40;;;;;;;1.43;1.40;;;14.80;55.80;;;;;;5112520;28;20451;-83
2023/04/02 06:46:09;;;;;;;1.73;1.60;;;14.90;56.00;;;;;;5116695;28;20424;-82
2023/04/02 06:48:37;;;;;;;3.90;1.67;;;14.90;56.00;;;;;;5116535;27;20470;-84
2023/04/02 06:51:06;;;;;;;2.97;1.80;;;15.00;56.10;;;;;;5116982;27;20440;-83
2023/04/02 06:53:35;;;;;;;1.80;1.40;;;15.00;56.20;;;;;;5118632;28;20932;-83
2023/04/02 06:56:06;;;;;;;1.50;1.40;;;15.00;56.20;;;;;;5120564;28;20457;-84
2023/04/02 06:58:34;;;;;;;1.63;1.53;;;15.10;56.30;;;;;;5121743;28;20542;-84
2023/04/02 07:01:02;;;;;;;2.53;1.70;;;15.10;56.40;;;;;;5119592;27;20480;-84
2023/04/02 07:03:31;;;;;;;1.40;1.30;;;15.20;56.50;;;;;;5117055;27;20549;-83
2023/04/02 07:06:00;;;;;;;1.70;1.60;;;15.20;56.60;;;;;;5116502;28;20456;-84
2023/04/02 07:08:28;;;;;;;1.50;1.33;;;15.20;56.50;;;;;;5120965;27;20539;-83
2023/04/02 07:10:57;;;;;;;1.83;1.73;;;15.30;56.70;;;;;;5114374;27;20978;-84
2023/04/02 07:13:27;;;;;;;2.30;1.30;;;15.30;56.80;;;;;;5120293;27;20440;-83
2023/04/02 07:15:55;;;;;;;1.37;1.27;;;15.30;56.70;;;;;;5122139;27;20440;-83
2023/04/02 07:18:25;;;;;;;1.77;1.30;;;15.40;56.90;;;;;;5113073;28;20539;-81
2023/04/02 07:20:53;;;;;;;1.87;1.60;;;15.40;56.90;;;;;;5114927;27;20456;-82
2023/04/02 07:23:21;;;;;;;1.60;1.50;;;15.40;56.90;;;;;;5108348;28;20519;-83
2023/04/02 07:25:50;;;;;;;1.70;1.60;;;15.50;57.20;;;;;;5112995;28;20497;-84
2023/04/02 07:28:18;;;;;;;2.20;1.23;;;15.50;57.30;;;;;;5115233;28;20482;-84
2023/04/02 07:30:50;;;;;;;1.40;1.27;;;15.50;57.30;;;;;;5107262;27;20444;-83
2023/04/02 07:33:19;;;;;;;2.30;1.73;;;15.60;57.40;;;;;;5113732;27;20457;-84
2023/04/02 07:35:48;;;;;;;1.50;1.33;;;15.70;57.70;;;;;;5114005;27;20451;-85
2023/04/02 07:38:15;;;;;;;1.57;1.47;;;15.70;57.80;;;;;;5108755;27;20516;-79
2023/04/02 07:40:43;;;;;;;3.50;1.70;;;15.80;58.10;;;;;;5110126;27;20464;-83
2023/04/02 07:43:12;;;;;;;4.10;1.50;;;15.70;57.40;;;;;;5117036;27;20444;-82
2023/04/02 07:45:40;;;;;;;3.57;2.07;;;15.60;53.90;;;;;;5117355;27;20542;-82
2023/04/02 07:48:11;;;;;;;3.03;1.77;;;15.30;52.60;;;;;;5111540;28;20555;-81
2023/04/02 07:50:39;;;;;;;2.00;1.57;;;15.20;51.00;;;;;;5116336;28;20440;-82
2023/04/02 07:53:08;;;;;;;2.80;1.83;;;15.00;50.10;;;;;;5115525;27;20451;-80
2023/04/02 07:55:36;;;;;;;2.93;1.60;;;14.90;49.80;;;;;;5116615;27;20448;-83
2023/04/02 07:58:04;;;;;;;2.20;1.40;;;15.00;49.80;;;;;;5116737;27;20460;-83
2023/04/02 08:00:32;;;;;;;2.97;1.90;;;15.00;49.20;;;;;;5115250;27;20468;-84
2023/04/02 08:03:00;;;;;;;12.83;3.30;;;15.00;49.30;;;;;;5114559;28;20428;-82
2023/04/02 08:05:30;;;;;;;4.40;2.70;;;15.00;49.10;;;;;;5113333;27;20431;-83
2023/04/02 08:07:58;;;;;;;2.53;2.10;;;15.20;48.50;;;;;;5116041;28;20455;-80
2023/04/02 08:10:26;;;;;;;3.17;2.03;;;15.20;48.70;;;;;;5110185;27;20484;-81
2023/04/02 08:12:54;;;;;;;11.90;1.13;;;15.40;48.40;;;;;;5107311;28;20431;-81
2023/04/02 08:15:22;;;;;;;3.43;1.40;;;15.60;56.10;;;;;;5113429;28;20503;-82
2023/04/02 08:17:50;;;;;;;2.73;2.13;;;15.60;48.20;;;;;;5113027;28;20466;-81
2023/04/02 08:20:18;;;;;;;2.13;1.50;;;15.20;47.20;;;;;;5115771;28;20436;-82
2023/04/02 08:22:49;;;;;;;2.53;1.63;;;15.00;46.70;;;;;;5114813;28;20497;-81
2023/04/02 08:25:17;;;;;;;3.77;1.43;;;14.80;46.90;;;;;;5111376;28;20455;-81
2023/04/02 08:27:46;;;;;;;3.77;1.50;;;14.50;42.40;;;;;;5112871;28;20462;-81
2023/04/02 08:30:15;;;;;;;8.13;1.70;;;14.80;45.40;;;;;;5113529;27;20440;-82
2023/04/02 08:32:43;;;;;;;3.30;1.57;;;14.70;44.80;;;;;;5112634;28;20436;-81
2023/04/02 08:35:11;;;;;;;3.90;1.83;;;14.90;42.60;;;;;;5113364;28;20475;-81
2023/04/02 08:37:40;;;;;;;2.30;1.40;;;14.90;43.90;;;;;;5111681;28;20467;-82
2023/04/02 08:40:16;;;;;;;1.93;1.40;;;15.00;43.70;;;;;;5107326;28;20447;-79
2023/04/02 08:42:46;;;;;;;4.00;1.40;;;15.60;44.90;;;;;;5107924;27;20564;-82
2023/04/02 08:45:20;;;;;;;4.13;1.40;;;16.40;44.70;;;;;;5098415;28;20511;-80
2023/04/02 08:47:54;;;;;;;5.60;1.37;;;17.00;44.90;;;;;;5112322;28;20555;-82
2023/04/02 08:50:26;;;;;;;1.67;1.20;;;17.50;45.20;;;;;;5113162;28;20435;-81
2023/04/02 08:52:54;;;;;;;3.10;1.07;;;18.00;45.80;;;;;;5113333;27;20432;-80
2023/04/02 08:55:28;;;;;;;4.70;1.30;;;18.50;46.60;;;;;;5114048;27;20450;-81
2023/04/02 08:57:59;;;;;;;10.40;1.40;;;18.80;47.20;;;;;;5105260;28;20456;-82
2023/04/02 09:00:32;;;;;;;4.70;1.37;;;19.20;47.90;;;;;;5107296;28;20525;-81
2023/04/02 09:03:02;;;;;;;2.73;1.07;;;19.50;48.30;;;;;;5112544;27;20554;-81
2023/04/02 09:05:32;;;;;;;2.03;1.00;;;19.80;48.90;;;;;;5103694;27;20467;-80
2023/04/02 09:08:02;;;;;;;2.00;1.00;;;20.10;49.40;;;;;;5107724;27;20529;-82
2023/04/02 09:10:35;;;;;;;2.70;1.33;;;20.40;49.90;;;;;;5100534;27;20444;-81
2023/04/02 09:13:03;;;;;;;2.33;1.40;;;20.60;50.10;;;;;;5102399;28;20432;-82
2023/04/02 09:15:33;;;;;;;2.33;1.10;;;20.90;50.50;;;;;;5103273;28;20456;-80
2023/04/02 09:18:06;;;;;;;3.17;1.23;;;21.10;50.80;;;;;;5099441;28;20463;-81
2023/04/02 09:20:35;;;;;;;3.67;1.30;;;21.40;51.10;;;;;;5119224;28;20455;-82
2023/04/02 09:23:03;;;;;;;2.53;1.20;;;21.60;51.40;;;;;;5110975;27;20495;-81
2023/04/02 09:25:33;;;;;;;1.77;1.00;;;21.90;51.50;;;;;;5111055;28;20467;-82
2023/04/02 09:28:02;;;;;;;2.27;0.93;;;22.10;51.70;;;;;;5119991;27;20531;-79
2023/04/02 09:30:39;;;;;;;1.30;1.20;;;22.40;51.80;;;;;;5110590;28;20427;-83
2023/04/02 09:33:07;;;;;;;3.17;1.17;;;22.60;51.90;;;;;;5105985;28;20474;-82
2023/04/02 09:35:36;;;;;;;2.10;1.30;;;22.90;52.10;;;;;;5108334;28;20432;-79
2023/04/02 09:38:21;;;;;;;1.13;1.03;;;23.10;52.10;;;;;;5119087;27;20410;-83
2023/04/02 09:40:51;;;;;;;2.70;1.23;;;23.40;52.10;;;;;;5115991;28;20452;-84
2023/04/02 09:43:20;;;;;;;2.33;1.20;;;23.60;52.00;;;;;;5132961;27;20459;-84
2023/04/02 09:45:57;;;;;;;2.40;1.17;;;23.90;52.00;;;;;;5126919;27;20460;-83
2023/04/02 09:48:28;;;;;;;1.50;1.10;;;24.20;51.80;;;;;;5130809;28;20434;-84
2023/04/02 09:51:15;;;;;;;4.57;1.40;;;24.30;51.40;;;;;;5133245;27;20394;-85
2023/04/02 09:53:44;;;;;;;1.50;1.10;;;24.60;51.60;;;;;;5127140;27;20449;-84
2023/04/02 09:56:15;;;;;;;1.57;1.00;;;24.80;51.40;;;;;;5126177;28;20420;-81
2023/04/02 09:58:44;;;;;;;1.63;1.00;;;25.00;51.20;;;;;;5130847;28;20438;-83
2023/04/02 10:01:33;;;;;;;1.53;1.00;;;25.30;51.30;;;;;;5135542;27;20399;-82
2023/04/02 10:04:02;;;;;;;2.20;1.20;;;25.50;51.10;;;;;;5114851;28;20467;-81
2023/04/02 10:06:31;;;;;;;1.23;1.00;;;25.70;50.90;;;;;;5113337;27;20425;-81
2023/04/02 10:09:00;;;;;;;1.30;1.10;;;26.00;50.80;;;;;;5111485;28;20461;-82
2023/04/02 10:11:30;;;;;;;4.57;1.30;;;26.30;50.60;;;;;;5115085;27;20433;-80
2023/04/02 10:14:17;;;;;;;6.33;0.90;;;26.20;46.50;;;;;;5110098;28;20459;-80
2023/04/02 10:16:48;;;;;;;1.63;1.10;;;26.30;45.30;;;;;;5115172;27;20438;-79
2023/04/02 10:19:22;;;;;;;5.23;1.00;;;26.30;44.30;;;;;;5110861;28;20438;-82
2023/04/02 10:21:51;;;;;;;6.27;1.00;;;26.40;44.10;;;;;;5115491;27;20493;-81
2023/04/02 10:24:28;;;;;;;5.80;1.00;;;26.60;44.00;;;;;;5115816;27;20430;-83
2023/04/02 10:27:16;;;;;;;1.53;0.83;;;26.70;43.80;;;;;;5116256;28;20432;-81
2023/04/02 10:30:09;;;;;;;4.53;1.17;;;26.70;43.40;;;;;;5120200;27;20448;-81
2023/04/02 10:32:40;;;;;;;5.23;1.10;;;26.70;42.80;;;;;;5117470;27;20414;-82
2023/04/02 10:35:17;;;;;;;3.27;1.03;;;26.70;43.10;;;;;;5114710;28;20510;-81
2023/04/02 10:38:00;;;;;;;13.00;1.40;;;26.70;43.40;;;;;;5113506;28;20468;-78
2023/04/02 10:40:29;;;;;;;5.27;1.40;;;26.70;42.90;;;;;;5110840;28;20528;-81
2023/04/02 10:43:21;;;;;;;3.63;1.10;;;26.70;43.20;;;;;;5109773;28;20435;-80
2023/04/02 10:45:50;;;;;;;5.50;1.10;;;26.90;43.00;;;;;;5114280;28;20440;-78
2023/04/02 10:48:21;;;;;;;2.83;1.00;;;26.70;42.60;;;;;;5113243;27;20449;-79
2023/04/02 10:50:51;;;;;;;4.60;1.13;;;26.60;42.80;;;;;;5113031;27;20502;-78
2023/04/02 10:53:20;;;;;;;4.50;1.20;;;26.50;43.20;;;;;;5110937;27;20418;-78
2023/04/02 10:55:51;;;;;;;4.07;1.30;;;26.40;43.40;;;;;;5114210;27;21016;-79
2023/04/02 10:58:23;;;;;;;2.30;1.17;;;26.30;43.60;;;;;;5109324;28;20438;-78
2023/04/02 11:00:53;;;;;;;2.80;1.30;;;26.30;43.70;;;;;;5114889;28;20430;-80
2023/04/02 11:03:28;;;;;;;5.90;1.10;;;26.30;43.60;;;;;;5109205;28;20443;-79
2023/04/02 11:05:57;;;;;;;3.90;1.50;;;26.20;43.20;;;;;;5104703;28;20437;-80
2023/04/02 11:08:26;;;;;;;2.47;1.60;;;26.20;43.60;;;;;;5112471;27;20463;-78
2023/04/02 11:10:56;;;;;;;3.70;1.40;;;26.30;43.60;;;;;;5108299;27;20418;-78
2023/04/02 11:13:27;;;;;;;8.90;1.77;;;26.40;43.90;;;;;;5110851;27;20435;-77
2023/04/02 11:15:55;;;;;;;2.30;1.50;;;26.50;43.00;;;;;;5104793;28;20452;-79
2023/04/02 11:18:32;;;;;;;4.83;1.47;;;26.40;43.00;;;;;;5106638;28;20806;-77
2023/04/02 11:21:02;;;;;;;4.00;1.40;;;26.30;43.20;;;;;;5109494;28;20555;-78
2023/04/02 11:23:33;;;;;;;3.47;1.13;;;26.40;43.20;;;;;;5112192;27;20451;-79
2023/04/02 11:26:36;;;;;;;31.70;1.60;;;26.40;43.20;;;;;;5112196;28;20394;-77
2023/04/02 11:29:33;;;;;;;91.17;7.63;;;26.70;43.10;;;;;;5108292;28;20512;-78
2023/04/02 11:32:26;;;;;;;18.13;2.90;;;25.80;35.30;;;;;;5108172;27;20439;-78
2023/04/02 11:35:19;;;;;;;23.60;3.50;;;26.10;41.40;;;;;;5127682;27;20419;-79
2023/04/02 11:37:47;;;;;;;16.93;3.10;;;26.20;40.40;;;;;;5115736;27;20471;-79
2023/04/02 11:40:41;;;;;;;18.10;2.93;;;26.50;41.20;;;;;;5112686;28;20452;-78
2023/04/02 11:43:47;;;;;;;20.80;3.17;;;26.90;41.20;;;;;;5113129;28;20443;-79
2023/04/02 11:46:45;;;;;;;9.50;2.93;;;27.20;40.80;;;;;;5112939;28;20444;-81
2023/04/02 11:49:38;;;;;;;10.87;2.30;;;27.30;40.40;;;;;;5085649;27;20453;-79
2023/04/02 11:52:24;;;;;;;37.70;2.70;;;27.20;39.90;;;;;;5045205;28;20504;-79
2023/04/02 11:54:57;;;;;;;11.67;2.27;;;27.20;39.00;;;;;;5110308;28;20521;-78
2023/04/02 11:57:34;;;;;;;8.03;2.23;;;27.40;39.60;;;;;;5113396;27;20417;-78
2023/04/02 12:00:12;;;;;;;6.30;1.77;;;27.50;39.30;;;;;;5104493;28;20425;-78
2023/04/02 12:02:48;;;;;;;16.20;2.30;;;27.70;39.00;;;;;;5103204;28;20446;-78
2023/04/02 12:05:19;;;;;;;5.30;2.17;;;27.90;38.80;;;;;;5100016;28;20444;-79
2023/04/02 12:07:56;;;;;;;3.40;1.80;;;28.10;38.40;;;;;;5105210;27;20464;-79
2023/04/02 12:10:26;;;;;;;5.37;2.00;;;28.00;37.90;;;;;;5108272;27;20448;-78
2023/04/02 12:12:54;;;;;;;5.00;1.60;;;27.90;38.30;;;;;;5108230;27;20452;-79
2023/04/02 12:15:39;;;;;;;5.47;1.60;;;27.90;38.10;;;;;;5092083;28;20941;-78
2023/04/02 12:18:13;;;;;;;5.03;1.50;;;28.10;38.00;;;;;;5108654;28;20438;-79
2023/04/02 12:20:43;;;;;;;3.70;1.60;;;28.20;37.70;;;;;;5109811;28;20447;-78
2023/04/02 12:23:17;;;;;;;3.33;1.50;;;28.40;37.60;;;;;;5103127;27;20472;-79
2023/04/02 12:25:45;;;;;;;8.50;1.67;;;28.50;37.30;;;;;;5092384;28;20452;-79
2023/04/02 12:28:17;;;;;;;4.30;1.73;;;28.50;37.10;;;;;;5106599;28;20463;-78
2023/04/02 12:30:45;;;;;;;5.83;1.60;;;28.50;36.90;;;;;;5105109;28;20454;-78
2023/04/02 12:33:26;;;;;;;4.07;1.47;;;28.60;37.00;;;;;;5104317;28;20527;-78
2023/04/02 12:35:56;;;;;;;1.80;1.30;;;28.40;36.50;;;;;;5101472;28;20438;-78
2023/04/02 12:38:24;;;;;;;2.10;1.10;;;28.50;37.00;;;;;;5108700;27;20430;-79
2023/04/02 12:40:53;;;;;;;5.00;1.77;;;28.50;36.90;;;;;;5096480;28;20450;-78
2023/04/02 12:43:25;;;;;;;3.33;1.40;;;28.60;36.50;;;;;;5107938;28;20438;-78
2023/04/02 12:45:53;;;;;;;2.33;1.30;;;28.30;36.20;;;;;;5110098;28;20504;-79
2023/04/02 12:48:23;;;;;;;4.70;1.53;;;28.40;36.60;;;;;;5119869;28;20475;-78
2023/04/02 12:50:50;;;;;;;4.37;1.47;;;28.40;36.70;;;;;;5101627;28;20440;-77
2023/04/02 12:53:23;;;;;;;2.37;1.57;;;28.50;36.30;;;;;;5108836;28;20527;-78
2023/04/02 12:55:54;;;;;;;1.47;1.30;;;28.60;36.20;;;;;;5109052;27;20411;-78
2023/04/02 12:58:30;;;;;;;2.27;1.60;;;28.70;36.10;;;;;;5110349;27;20454;-78
2023/04/02 13:01:17;;;;;;;2.60;1.37;;;28.70;35.90;;;;;;5106032;28;20417;-78
2023/04/02 13:04:01;;;;;;;2.07;1.40;;;28.80;35.80;;;;;;5112828;27;20476;-79
2023/04/02 13:06:29;;;;;;;2.80;1.10;;;28.70;35.60;;;;;;5108878;28;20474;-76
2023/04/02 13:08:57;;;;;;;4.20;1.10;;;28.80;35.60;;;;;;5112651;28;20462;-79
2023/04/02 13:11:34;;;;;;;2.03;1.33;;;28.90;35.40;;;;;;5109217;27;20430;-78